createdAt,value
2019-05-26T00:00:41.861Z,100082.52
2019-05-26T00:03:16.071Z,100075.31
2019-05-26T00:05:48.549Z,100077.87
2019-05-26T00:08:21.224Z,100085.77
2019-05-26T00:10:53.595Z,100086.62
2019-05-26T00:13:25.966Z,100089.80
2019-05-26T00:15:58.239Z,100079.24
2019-05-26T00:18:33.301Z,100091.23
2019-05-26T00:21:04.438Z,100086.89
2019-05-26T00:23:36.792Z,100082.05
2019-05-26T00:26:09.265Z,100089.18
2019-05-26T00:28:41.646Z,100081.19
2019-05-26T00:31:14.216Z,100083.85
2019-05-26T00:33:46.689Z,100083.85
2019-05-26T00:36:19.063Z,100086.24
2019-05-26T00:38:51.743Z,100080.44
2019-05-26T00:41:24.216Z,100083.48
2019-05-26T00:43:56.592Z,100092.53
2019-05-26T00:46:29.015Z,100089.24
2019-05-26T00:49:01.640Z,100089.62
2019-05-26T00:51:34.012Z,100092.48
2019-05-26T00:54:06.792Z,100090.77
2019-05-26T00:56:39.163Z,100091.35
2019-05-26T00:59:11.848Z,100086.63
2019-05-26T01:01:44.216Z,100086.98
2019-05-26T01:04:16.800Z,100082.46
2019-05-26T01:06:49.268Z,100086.84
2019-05-26T01:09:21.643Z,100087.21
2019-05-26T01:11:53.811Z,100087.97
2019-05-26T01:14:26.175Z,100091.35
2019-05-26T01:16:58.547Z,100087.36
2019-05-26T01:19:30.720Z,100085.97
2019-05-26T01:22:03.293Z,100085.19
2019-05-26T01:24:35.978Z,100093.42
2019-05-26T01:27:08.248Z,100092.75
2019-05-26T01:29:40.821Z,100093.27
2019-05-26T01:32:13.297Z,100088.11
2019-05-26T01:34:45.870Z,100096.99
2019-05-26T01:37:19.062Z,100097.16
2019-05-26T01:39:51.654Z,100098.16
2019-05-26T01:42:23.903Z,100106.80
2019-05-26T01:44:56.489Z,100104.96
2019-05-26T01:47:28.860Z,100101.95
2019-05-26T01:50:01.230Z,100103.28
2019-05-26T01:52:33.403Z,100098.05
2019-05-26T01:55:06.843Z,100107.22
2019-05-26T01:57:39.374Z,100105.27
2019-05-26T02:00:12.047Z,100107.66
2019-05-26T02:02:44.625Z,100116.03
2019-05-26T02:05:17.104Z,100121.36
2019-05-26T02:07:49.673Z,100124.17
2019-05-26T02:10:22.560Z,100119.97
2019-05-26T02:12:54.722Z,100122.42
2019-05-26T02:15:28.025Z,100121.92
2019-05-26T02:18:00.136Z,100124.48
2019-05-26T02:20:32.461Z,100126.70
2019-05-26T02:23:05.239Z,100133.03
2019-05-26T02:25:37.508Z,100139.38
2019-05-26T02:28:09.777Z,100145.44
2019-05-26T02:30:41.959Z,100147.77
2019-05-26T02:33:14.420Z,100143.52
2019-05-26T02:35:46.800Z,100147.22
2019-05-26T02:38:19.068Z,100142.87
2019-05-26T02:40:51.847Z,100152.13
2019-05-26T02:43:24.417Z,100153.77
2019-05-26T02:45:57.108Z,100154.27
2019-05-26T02:48:29.398Z,100153.02
2019-05-26T02:51:01.635Z,100157.91
2019-05-26T02:53:34.115Z,100159.02
2019-05-26T02:56:06.699Z,100156.86
2019-05-26T02:58:39.072Z,100152.64
2019-05-26T03:01:11.843Z,100155.13
2019-05-26T03:03:44.328Z,100149.16
2019-05-26T03:06:16.794Z,100153.11
2019-05-26T03:08:49.064Z,100149.86
2019-05-26T03:11:21.650Z,100160.13
2019-05-26T03:13:54.836Z,100158.34
2019-05-26T03:16:27.133Z,100159.45
2019-05-26T03:18:59.577Z,100161.27
2019-05-26T03:21:33.224Z,100165.65
2019-05-26T03:24:05.448Z,100171.00
2019-05-26T03:26:38.124Z,100169.58
2019-05-26T03:29:10.510Z,100167.52
2019-05-26T03:31:43.074Z,100160.60
2019-05-26T03:34:15.756Z,100172.25
2019-05-26T03:36:47.926Z,100171.30
2019-05-26T03:39:20.395Z,100176.65
2019-05-26T03:41:52.890Z,100191.23
2019-05-26T03:44:25.219Z,100196.48
2019-05-26T03:46:58.126Z,100199.52
2019-05-26T03:49:30.617Z,100201.22
2019-05-26T03:52:02.789Z,100200.72
2019-05-26T03:54:35.140Z,100209.47
2019-05-26T03:57:07.713Z,100209.23
2019-05-26T03:59:40.094Z,100206.55
2019-05-26T04:02:13.889Z,100200.58
2019-05-26T04:04:46.471Z,100209.59
2019-05-26T04:07:19.241Z,100210.07
2019-05-26T04:10:04.073Z,100212.63
2019-05-26T04:12:25.431Z,100218.23
2019-05-26T04:14:58.517Z,100220.53
2019-05-26T04:17:30.896Z,100227.59
2019-05-26T04:20:03.779Z,100225.78
2019-05-26T04:22:36.047Z,100234.16
2019-05-26T04:25:08.524Z,100229.05
2019-05-26T04:27:41.096Z,100237.34
2019-05-26T04:30:13.165Z,100243.80
2019-05-26T04:32:45.958Z,100232.73
2019-05-26T04:35:18.319Z,100237.83
2019-05-26T04:37:50.910Z,100239.61
2019-05-26T04:40:27.143Z,100234.75
2019-05-26T04:42:57.374Z,100236.51
2019-05-26T04:45:29.613Z,100239.18
2019-05-26T04:48:01.930Z,100233.20
2019-05-26T04:50:34.097Z,100237.98
2019-05-26T04:53:07.443Z,100235.86
2019-05-26T04:55:39.667Z,100239.58
2019-05-26T04:58:12.322Z,100242.38
2019-05-26T05:00:44.647Z,100234.03
2019-05-26T05:03:16.936Z,100246.65
2019-05-26T05:05:49.426Z,100252.05
2019-05-26T05:08:21.511Z,100252.58
2019-05-26T05:10:53.719Z,100245.16
2019-05-26T05:13:25.977Z,100252.25
2019-05-26T05:15:57.912Z,100256.84
2019-05-26T05:18:30.033Z,100255.23
2019-05-26T05:21:02.420Z,100257.63
2019-05-26T05:23:34.517Z,100258.91
2019-05-26T05:26:06.907Z,100255.75
2019-05-26T05:28:39.234Z,100256.31
2019-05-26T05:31:12.132Z,100254.57
2019-05-26T05:33:44.633Z,100249.07
2019-05-26T05:36:17.088Z,100266.52
2019-05-26T05:38:49.373Z,100269.50
2019-05-26T05:41:21.964Z,100275.61
2019-05-26T05:43:54.688Z,100264.81
2019-05-26T05:46:26.730Z,100260.31
2019-05-26T05:48:59.368Z,100264.94
2019-05-26T05:51:32.572Z,100258.41
2019-05-26T05:54:05.084Z,100263.55
2019-05-26T05:56:37.295Z,100259.56
2019-05-26T05:59:09.900Z,100266.94
2019-05-26T06:01:42.348Z,100263.81
2019-05-26T06:04:14.722Z,100272.49
2019-05-26T06:06:47.102Z,100268.02
2019-05-26T06:09:19.470Z,100264.27
2019-05-26T06:11:56.453Z,100269.52
2019-05-26T06:14:25.803Z,100276.47
2019-05-26T06:16:57.929Z,100264.42
2019-05-26T06:19:30.293Z,100267.14
2019-05-26T06:22:02.373Z,100273.70
2019-05-26T06:24:34.936Z,100276.97
2019-05-26T06:27:08.337Z,100286.49
2019-05-26T06:29:40.722Z,100284.67
2019-05-26T06:32:13.494Z,100291.23
2019-05-26T06:34:46.372Z,100285.72
2019-05-26T06:37:18.525Z,100286.60
2019-05-26T06:39:50.936Z,100281.18
2019-05-26T06:42:23.093Z,100281.66
2019-05-26T06:44:55.677Z,100281.86
2019-05-26T06:47:28.139Z,100280.20
2019-05-26T06:50:00.390Z,100286.80
2019-05-26T06:52:32.358Z,100294.02
2019-05-26T06:55:05.801Z,100287.09
2019-05-26T06:57:39.254Z,100296.89
2019-05-26T07:00:11.862Z,100297.00
2019-05-26T07:02:43.798Z,100292.08
2019-05-26T07:05:18.502Z,100298.95
2019-05-26T07:07:52.156Z,100294.61
2019-05-26T07:10:24.391Z,100294.48
2019-05-26T07:12:56.570Z,100286.03
2019-05-26T07:15:29.132Z,100289.73
2019-05-26T07:18:01.215Z,100297.79
2019-05-26T07:20:34.597Z,100301.16
2019-05-26T07:23:08.297Z,100297.00
2019-05-26T07:25:41.184Z,100304.14
2019-05-26T07:28:13.558Z,100302.81
2019-05-26T07:30:46.021Z,100309.19
2019-05-26T07:33:18.710Z,100309.48
2019-05-26T07:35:51.349Z,100310.26
2019-05-26T07:38:24.716Z,100314.03
2019-05-26T07:40:57.241Z,100317.78
2019-05-26T07:43:29.313Z,100316.13
2019-05-26T07:46:02.020Z,100310.69
2019-05-26T07:48:35.978Z,100313.14
2019-05-26T07:51:08.377Z,100319.52
2019-05-26T07:53:40.342Z,100315.19
2019-05-26T07:56:13.069Z,100313.91
2019-05-26T07:58:45.216Z,100313.95
2019-05-26T08:01:17.999Z,100310.53
2019-05-26T08:03:50.053Z,100314.13
2019-05-26T08:06:23.648Z,100319.70
2019-05-26T08:08:56.011Z,100303.57
2019-05-26T08:11:29.127Z,100305.56
2019-05-26T08:14:01.464Z,100310.77
2019-05-26T08:16:33.948Z,100312.75
2019-05-26T08:19:07.372Z,100307.47
2019-05-26T08:21:39.911Z,100317.12
2019-05-26T08:24:12.700Z,100307.28
2019-05-26T08:26:45.235Z,100313.78
2019-05-26T08:29:16.753Z,100309.30
2019-05-26T08:31:48.894Z,100307.55
2019-05-26T08:34:21.187Z,100303.98
2019-05-26T08:36:53.654Z,100315.76
2019-05-26T08:39:26.831Z,100315.13
2019-05-26T08:41:59.507Z,100312.52
2019-05-26T08:44:32.011Z,100317.02
2019-05-26T08:47:04.944Z,100313.45
2019-05-26T08:49:37.797Z,100317.52
2019-05-26T08:52:10.019Z,100320.96
2019-05-26T08:54:42.494Z,100322.42
2019-05-26T08:57:15.623Z,100312.80
2019-05-26T08:59:47.794Z,100316.67
2019-05-26T09:02:20.871Z,100310.45
2019-05-26T09:04:53.209Z,100313.50
2019-05-26T09:07:25.888Z,100315.17
2019-05-26T09:09:58.372Z,100305.66
2019-05-26T09:12:30.839Z,100309.30
2019-05-26T09:15:04.859Z,100304.81
2019-05-26T09:17:38.660Z,100309.43
2019-05-26T09:20:11.950Z,100321.22
2019-05-26T09:22:46.706Z,100325.48
2019-05-26T09:25:19.475Z,100318.09
2019-05-26T09:27:51.850Z,100316.11
2019-05-26T09:30:24.167Z,100323.23
2019-05-26T09:32:56.708Z,100320.69
2019-05-26T09:35:28.860Z,100319.88
2019-05-26T09:38:01.913Z,100312.52
2019-05-26T09:40:34.213Z,100321.63
2019-05-26T09:43:15.734Z,100324.71
2019-05-26T09:45:41.508Z,100324.52
2019-05-26T09:48:14.495Z,100319.33
2019-05-26T09:50:46.760Z,100321.57
2019-05-26T09:53:18.918Z,100314.14
2019-05-26T09:55:51.274Z,100318.27
2019-05-26T09:58:23.810Z,100323.47
2019-05-26T10:00:56.159Z,100325.19
2019-05-26T10:03:28.523Z,100321.11
2019-05-26T10:06:00.910Z,100323.68
2019-05-26T10:08:33.787Z,100313.22
2019-05-26T10:11:06.597Z,100318.78
2019-05-26T10:13:39.144Z,100314.02
2019-05-26T10:16:11.432Z,100315.70
2019-05-26T10:18:43.799Z,100310.11
2019-05-26T10:21:16.223Z,100309.41
2019-05-26T10:23:52.913Z,100316.51
2019-05-26T10:26:22.943Z,100320.56
2019-05-26T10:28:55.228Z,100319.57
2019-05-26T10:31:27.282Z,100324.28
2019-05-26T10:34:01.364Z,100321.98
2019-05-26T10:36:33.766Z,100332.55
2019-05-26T10:39:08.350Z,100333.59
2019-05-26T10:41:40.672Z,100334.63
2019-05-26T10:44:13.559Z,100331.42
2019-05-26T10:46:46.200Z,100337.21
2019-05-26T10:49:18.516Z,100329.23
2019-05-26T10:51:50.774Z,100328.20
2019-05-26T10:54:23.410Z,100335.31
2019-05-26T10:56:55.882Z,100327.47
2019-05-26T10:59:28.470Z,100327.28
2019-05-26T11:02:00.769Z,100325.89
2019-05-26T11:04:33.673Z,100327.59
2019-05-26T11:07:07.343Z,100326.88
2019-05-26T11:09:40.150Z,100320.62
2019-05-26T11:12:12.689Z,100317.27
2019-05-26T11:14:45.384Z,100317.09
2019-05-26T11:17:17.765Z,100332.02
2019-05-26T11:19:50.580Z,100337.64
2019-05-26T11:22:23.047Z,100338.61
2019-05-26T11:24:55.929Z,100340.70
2019-05-26T11:27:28.341Z,100346.13
2019-05-26T11:30:01.068Z,100350.27
2019-05-26T11:32:34.253Z,100347.42
2019-05-26T11:35:07.340Z,100345.81
2019-05-26T11:37:40.863Z,100355.33
2019-05-26T11:40:12.711Z,100350.59
2019-05-26T11:42:45.344Z,100363.27
2019-05-26T11:45:19.174Z,100361.93
2019-05-26T11:47:51.722Z,100362.76
2019-05-26T11:50:24.109Z,100367.30
2019-05-26T11:52:56.401Z,100367.13
2019-05-26T11:55:29.102Z,100362.08
2019-05-26T11:58:01.258Z,100366.83
2019-05-26T12:00:33.822Z,100363.28
2019-05-26T12:03:05.904Z,100368.34
2019-05-26T12:05:39.212Z,100368.48
2019-05-26T12:08:11.272Z,100364.32
2019-05-26T12:10:43.716Z,100365.27
2019-05-26T12:13:16.305Z,100358.41
2019-05-26T12:15:49.898Z,100358.49
2019-05-26T12:18:22.371Z,100355.67
2019-05-26T12:20:54.746Z,100353.34
2019-05-26T12:23:27.110Z,100290.39
2019-05-26T12:25:59.629Z,100347.80
2019-05-26T12:28:31.744Z,100350.52
2019-05-26T12:31:04.406Z,100356.58
2019-05-26T12:33:36.826Z,100344.69
2019-05-26T12:36:09.335Z,100342.43
2019-05-26T12:38:53.848Z,100338.45
2019-05-26T12:41:26.306Z,100340.43
2019-05-26T13:58:48.369Z,100461.81
2019-05-26T14:01:22.016Z,100470.30
2019-05-26T14:03:54.841Z,100448.27
2019-05-26T14:06:27.353Z,100456.26
2019-05-26T14:09:02.352Z,100468.92
2019-05-26T14:11:35.938Z,100470.78
2019-05-26T14:14:09.028Z,100466.60
2019-05-26T14:16:41.186Z,100477.19
2019-05-26T14:19:14.172Z,100479.34
2019-05-26T14:21:46.460Z,100481.29
2019-05-26T14:24:19.156Z,100473.43
2019-05-26T14:26:51.809Z,100476.69
2019-05-26T14:29:25.494Z,100477.61
2019-05-26T14:31:57.498Z,100477.88
2019-05-26T14:34:29.837Z,100489.14
2019-05-26T14:37:02.247Z,100487.78
2019-05-26T14:39:35.224Z,100488.16
2019-05-26T14:42:12.688Z,100478.45
2019-05-26T14:44:45.485Z,100488.37
2019-05-26T14:47:18.341Z,100491.89
2019-05-26T14:49:50.810Z,100499.25
2019-05-26T14:52:24.229Z,100500.39
2019-05-26T14:54:56.800Z,100497.73
2019-05-26T14:57:31.064Z,100499.73
2019-05-26T15:00:05.223Z,100501.63
2019-05-26T15:02:37.503Z,100511.20
2019-05-26T15:05:11.313Z,100513.24
2019-05-26T15:07:43.578Z,100509.91
2019-05-26T15:10:16.251Z,100507.78
2019-05-26T15:12:49.008Z,100506.89
2019-05-26T15:15:21.886Z,100503.86
2019-05-26T15:17:54.438Z,100509.22
2019-05-26T15:20:27.292Z,100515.59
2019-05-26T15:23:00.845Z,100520.92
2019-05-26T15:25:33.933Z,100512.83
2019-05-26T15:28:07.838Z,100517.23
2019-05-26T15:30:40.478Z,100522.75
2019-05-26T15:33:12.826Z,100521.94
2019-05-26T15:35:45.665Z,100522.73
2019-05-26T15:38:17.711Z,100531.58
2019-05-26T15:40:50.179Z,100539.09
2019-05-26T15:43:22.256Z,100548.77
2019-05-26T15:45:54.783Z,100549.80
2019-05-26T15:48:27.076Z,100548.16
2019-05-26T15:51:00.994Z,100555.92
2019-05-26T15:53:33.576Z,100559.77
2019-05-26T15:56:06.642Z,100556.28
2019-05-26T15:58:39.229Z,100556.08
2019-05-26T16:01:14.191Z,100559.30
2019-05-26T16:03:46.741Z,100559.98
2019-05-26T16:06:20.122Z,100561.12
2019-05-26T16:08:53.827Z,100564.20
2019-05-26T16:11:26.095Z,100568.75
2019-05-26T16:13:58.261Z,100574.37
2019-05-26T16:16:40.578Z,100577.05
2019-05-26T16:19:05.619Z,100583.05
2019-05-26T16:21:38.563Z,100580.88
2019-05-26T16:24:10.933Z,100589.81
2019-05-26T16:26:43.838Z,100593.37
2019-05-26T16:29:16.487Z,100587.52
2019-05-26T16:31:48.682Z,100602.15
2019-05-26T16:34:21.341Z,100597.88
2019-05-26T16:36:54.044Z,100598.48
2019-05-26T16:39:36.679Z,100603.14
2019-05-26T16:42:01.076Z,100598.98
2019-05-26T16:44:35.873Z,100603.95
2019-05-26T16:47:09.747Z,100600.64
2019-05-26T16:49:42.417Z,100606.13
2019-05-26T16:52:15.288Z,100607.95
2019-05-26T16:54:47.905Z,100610.37
2019-05-26T16:57:20.497Z,100605.01
2019-05-26T16:59:52.941Z,100601.84
2019-05-26T17:02:26.564Z,100605.52
2019-05-26T17:04:59.254Z,100600.75
2019-05-26T17:07:31.783Z,100606.27
2019-05-26T17:10:07.255Z,100600.78
2019-05-26T17:12:41.469Z,100604.66
2019-05-26T17:15:14.056Z,100611.14
2019-05-26T17:17:46.600Z,100612.48
2019-05-26T17:20:19.075Z,100613.22
2019-05-26T17:22:51.973Z,100621.50
2019-05-26T17:25:24.755Z,100631.26
2019-05-26T17:27:57.227Z,100637.59
2019-05-26T17:30:31.192Z,100635.24
2019-05-26T17:33:03.861Z,100637.77
2019-05-26T17:35:36.109Z,100641.74
2019-05-26T17:38:08.669Z,100647.08
2019-05-26T17:40:43.519Z,100653.23
2019-05-26T17:43:16.280Z,100650.13
2019-05-26T17:45:48.831Z,100654.34
2019-05-26T17:48:21.318Z,100655.38
2019-05-26T17:50:54.440Z,100658.59
2019-05-26T17:53:26.979Z,100657.82
2019-05-26T17:55:59.583Z,100667.27
2019-05-26T17:58:32.445Z,100672.48
2019-05-26T18:01:08.169Z,100673.80
2019-05-26T18:03:41.058Z,100677.37
2019-05-26T18:06:13.982Z,100683.48
2019-05-26T18:08:46.892Z,100685.75
2019-05-26T18:11:20.676Z,100688.02
2019-05-26T18:13:54.716Z,100685.27
2019-05-26T18:16:27.070Z,100695.93
2019-05-26T18:19:00.031Z,100698.95
2019-05-26T18:21:32.508Z,100705.36
2019-05-26T18:24:04.884Z,100704.45
2019-05-26T18:26:37.255Z,100707.02
2019-05-26T18:29:09.925Z,100707.16
2019-05-26T18:31:42.706Z,100717.09
2019-05-26T18:34:15.714Z,100708.06
2019-05-26T18:36:48.064Z,100712.55
2019-05-26T18:39:21.871Z,100713.03
2019-05-26T18:41:54.447Z,100722.59
2019-05-26T18:44:27.216Z,100720.20
2019-05-26T18:46:59.609Z,100726.27
2019-05-26T18:49:34.153Z,100724.36
2019-05-26T18:52:06.522Z,100723.60
2019-05-26T18:54:39.417Z,100732.81
2019-05-26T18:57:12.383Z,100725.84
2019-05-26T18:59:44.662Z,100720.25
2019-05-26T19:02:17.198Z,100727.13
2019-05-26T19:04:49.979Z,100730.39
2019-05-26T19:07:22.357Z,100732.53
2019-05-26T19:09:55.143Z,100730.05
2019-05-26T19:12:27.410Z,100726.27
2019-05-26T19:15:00.221Z,100729.04
2019-05-26T19:17:32.876Z,100731.81
2019-05-26T19:20:16.190Z,100739.83
2019-05-26T19:22:43.364Z,100744.00
2019-05-26T19:25:16.042Z,100744.00
2019-05-26T19:27:49.646Z,100750.53
2019-05-26T19:30:22.423Z,100749.61
2019-05-26T19:32:59.580Z,100748.94
2019-05-26T19:35:31.976Z,100754.04
2019-05-26T19:38:04.546Z,100758.77
2019-05-26T19:40:37.336Z,100758.63
2019-05-26T19:43:09.615Z,100759.03
2019-05-26T19:45:42.222Z,100759.86
2019-05-26T19:48:14.757Z,100762.22
2019-05-26T19:50:47.176Z,100770.42
2019-05-26T19:53:19.388Z,100769.72
2019-05-26T19:55:51.853Z,100775.73
2019-05-26T19:58:24.127Z,100776.41
2019-05-26T20:00:56.604Z,100777.39
2019-05-26T20:03:28.859Z,100779.08
2019-05-26T20:06:02.405Z,100777.58
2019-05-26T20:08:35.130Z,100788.36
2019-05-26T20:11:07.539Z,100788.39
2019-05-26T20:13:39.765Z,100792.38
2019-05-26T20:16:12.225Z,100791.51
2019-05-26T20:18:44.556Z,100801.53
2019-05-26T20:21:17.052Z,100803.52
2019-05-26T20:23:49.278Z,100807.14
2019-05-26T20:26:21.612Z,100815.03
2019-05-26T20:28:53.897Z,100817.06
2019-05-26T20:31:26.270Z,100819.52
2019-05-26T20:33:58.441Z,100817.52
2019-05-26T20:36:31.005Z,100828.11
2019-05-26T20:39:03.295Z,100822.00
2019-05-26T20:41:36.802Z,100824.67
2019-05-26T20:44:09.072Z,100825.16
2019-05-26T20:46:41.456Z,100829.48
2019-05-26T20:49:13.732Z,100824.16
2019-05-26T20:51:46.127Z,100829.28
2019-05-26T20:54:18.669Z,100828.61
2019-05-26T20:56:52.942Z,100838.63
2019-05-26T20:59:25.158Z,100834.94
2019-05-26T21:01:57.716Z,100831.98
2019-05-26T21:04:29.974Z,100835.51
2019-05-26T21:07:02.737Z,100831.88
2019-05-26T21:09:35.309Z,100827.80
2019-05-26T21:12:08.167Z,100833.23
2019-05-26T21:14:40.629Z,100836.39
2019-05-26T21:17:13.404Z,100836.84
2019-05-26T21:19:45.872Z,100843.03
2019-05-26T21:22:18.555Z,100836.19
2019-05-26T21:24:51.135Z,100836.55
2019-05-26T21:27:23.667Z,100842.50
2019-05-26T21:29:57.514Z,100846.48
2019-05-26T21:32:31.361Z,100845.25
2019-05-26T21:35:07.681Z,100845.34
2019-05-26T21:37:40.484Z,100850.31
2019-05-26T21:40:13.668Z,100853.39
2019-05-26T21:42:46.045Z,100852.62
2019-05-26T21:45:18.512Z,100856.61
2019-05-26T21:47:51.079Z,100854.33
2019-05-26T21:50:23.688Z,100863.69
2019-05-26T21:52:56.150Z,100854.91
2019-05-26T21:55:28.726Z,100861.02
2019-05-26T21:58:01.278Z,100859.55
2019-05-26T22:00:35.345Z,100866.83
2019-05-26T22:03:08.264Z,100865.19
2019-05-26T22:05:40.323Z,100863.28
2019-05-26T22:08:13.005Z,100870.77
2019-05-26T22:10:45.388Z,100876.25
2019-05-26T22:13:17.650Z,100875.70
2019-05-26T22:15:49.790Z,100874.37
2019-05-26T22:18:22.424Z,100873.03
2019-05-26T22:20:54.580Z,100883.81
2019-05-26T22:23:26.742Z,100883.30
2019-05-26T22:25:58.952Z,100882.36
2019-05-26T22:28:31.304Z,100886.66
2019-05-26T22:31:03.574Z,100881.88
2019-05-26T22:33:35.985Z,100891.05
2019-05-26T22:36:08.213Z,100889.98
2019-05-26T22:38:40.439Z,100890.36
2019-05-26T22:41:12.591Z,100888.85
2019-05-26T22:43:44.761Z,100888.47
2019-05-26T22:46:16.927Z,100887.13
2019-05-26T22:48:49.288Z,100891.60
2019-05-26T22:51:21.709Z,100891.13
2019-05-26T22:53:54.280Z,100894.91
2019-05-26T22:56:26.859Z,100890.34
2019-05-26T22:58:59.140Z,100890.13
2019-05-26T23:01:32.470Z,100900.41
2019-05-26T23:04:05.308Z,100894.80
2019-05-26T23:06:37.684Z,100901.56
2019-05-26T23:09:10.774Z,100905.73
2019-05-26T23:11:43.484Z,100902.09
2019-05-26T23:14:16.857Z,100899.25
2019-05-26T23:16:49.315Z,100901.05
2019-05-26T23:19:21.894Z,100900.92
2019-05-26T23:21:54.675Z,100906.25
2019-05-26T23:24:27.281Z,100897.52
2019-05-26T23:26:59.414Z,100895.72
2019-05-26T23:29:31.502Z,100898.10
2019-05-26T23:32:03.797Z,100898.30
2019-05-26T23:34:36.000Z,100908.20
2019-05-26T23:37:08.305Z,100903.42
2019-05-26T23:39:40.483Z,100903.03
2019-05-26T23:42:12.787Z,100907.97
2019-05-26T23:44:46.052Z,100903.95
2019-05-26T23:47:18.255Z,100914.23
2019-05-26T23:49:51.564Z,100910.01
2019-05-26T23:52:23.834Z,100916.37
2019-05-26T23:54:56.070Z,100920.84
2019-05-26T23:57:28.178Z,100931.31
